createdAt,value
2023-02-07T00:01:26.371Z,-3.23
2023-02-07T00:03:55.043Z,-3.24
2023-02-07T00:06:33.456Z,-3.22
2023-02-07T00:09:00.852Z,-3.16
2023-02-07T00:11:27.969Z,-3.13
2023-02-07T00:13:57.463Z,-3.14
2023-02-07T00:16:26.045Z,-3.17
2023-02-07T00:18:52.897Z,-3.15
2023-02-07T00:21:22.783Z,-3.19
2023-02-07T00:23:49.669Z,-3.20
2023-02-07T00:26:17.450Z,-3.20
2023-02-07T00:28:44.074Z,-3.20
2023-02-07T00:31:18.015Z,-3.19
2023-02-07T00:33:45.939Z,-3.29
2023-02-07T00:36:15.272Z,-3.30
2023-02-07T00:38:42.866Z,-3.35
2023-02-07T00:41:09.511Z,-3.41
2023-02-07T00:43:35.937Z,-3.48
2023-02-07T00:46:05.450Z,-3.50
2023-02-07T00:48:32.162Z,-3.53
2023-02-07T00:50:59.296Z,-3.46
2023-02-07T00:53:27.401Z,-3.51
2023-02-07T00:55:53.827Z,-3.62
2023-02-07T00:58:21.220Z,-3.68
2023-02-07T01:00:47.931Z,-3.73
2023-02-07T01:03:14.523Z,-3.80
2023-02-07T01:05:41.469Z,-3.87
2023-02-07T01:08:08.079Z,-3.95
2023-02-07T01:10:35.388Z,-4.02
2023-02-07T01:13:01.864Z,-3.93
2023-02-07T01:15:28.277Z,-3.95
2023-02-07T01:17:54.725Z,-3.95
2023-02-07T01:20:21.169Z,-3.92
2023-02-07T01:22:47.569Z,-3.94
2023-02-07T01:25:13.983Z,-4.01
2023-02-07T01:27:40.367Z,-4.12
2023-02-07T01:30:07.148Z,-4.18
2023-02-07T01:32:33.852Z,-4.26
2023-02-07T01:35:03.642Z,-4.35
2023-02-07T01:37:30.024Z,-4.31
2023-02-07T01:39:56.507Z,-4.24
2023-02-07T01:42:25.671Z,-4.19
2023-02-07T01:44:51.995Z,-4.16
2023-02-07T01:47:21.212Z,-4.18
2023-02-07T01:49:50.162Z,-4.17
2023-02-07T01:52:24.262Z,-4.12
2023-02-07T01:54:55.420Z,-4.08
2023-02-07T01:57:23.045Z,-4.02
2023-02-07T01:59:52.583Z,-4.06
2023-02-07T02:02:22.168Z,-4.03
2023-02-07T02:04:51.508Z,-4.18
2023-02-07T02:07:19.056Z,-4.18
2023-02-07T02:09:45.502Z,-4.16
2023-02-07T02:12:14.912Z,-4.06
2023-02-07T02:14:44.217Z,-4.06
2023-02-07T02:17:21.900Z,-4.04
2023-02-07T02:20:10.443Z,-4.05
2023-02-07T02:23:11.146Z,-4.15
2023-02-07T02:26:15.131Z,-4.24
2023-02-07T02:29:09.439Z,-4.22
2023-02-07T02:31:54.216Z,-4.22
2023-02-07T02:34:36.572Z,-4.19
2023-02-07T02:37:29.378Z,-4.22
2023-02-07T02:39:58.726Z,-4.44
2023-02-07T02:42:47.904Z,-4.63
2023-02-07T02:45:25.728Z,-4.59
2023-02-07T02:47:52.949Z,-4.60
2023-02-07T02:50:23.592Z,-4.66
2023-02-07T02:52:51.335Z,-4.80
2023-02-07T02:55:31.400Z,-4.88
2023-02-07T02:58:26.904Z,-4.74
2023-02-07T03:01:15.357Z,-4.64
2023-02-07T03:04:09.566Z,-4.70
2023-02-07T03:06:46.355Z,-4.63
2023-02-07T03:09:25.891Z,-4.58
2023-02-07T03:12:20.799Z,-4.53
2023-02-07T03:15:04.762Z,-4.59
2023-02-07T03:17:42.633Z,-4.54
2023-02-07T03:20:20.128Z,-4.35
2023-02-07T03:22:48.543Z,-4.43
2023-02-07T03:25:17.135Z,-4.32
2023-02-07T03:27:45.896Z,-4.24
2023-02-07T03:30:16.517Z,-4.15
2023-02-07T03:32:50.012Z,-4.21
2023-02-07T03:35:30.731Z,-4.14
2023-02-07T03:37:59.898Z,-4.17
2023-02-07T03:40:28.849Z,-4.12
2023-02-07T03:43:10.759Z,-4.22
2023-02-07T03:45:37.627Z,-4.20
2023-02-07T03:48:04.247Z,-4.09
2023-02-07T03:50:30.674Z,-4.01
2023-02-07T03:52:57.067Z,-4.22
2023-02-07T03:55:23.606Z,-4.32
2023-02-07T03:57:50.213Z,-4.16
2023-02-07T04:00:16.707Z,-4.10
2023-02-07T04:02:43.227Z,-3.96
2023-02-07T04:05:09.712Z,-3.88
2023-02-07T04:07:36.129Z,-4.00
2023-02-07T04:10:03.678Z,-4.04
2023-02-07T04:12:32.845Z,-3.97
2023-02-07T04:15:03.188Z,-4.06
2023-02-07T04:17:31.354Z,-3.99
2023-02-07T04:19:58.027Z,-3.90
2023-02-07T04:22:24.602Z,-3.89
2023-02-07T04:24:50.986Z,-3.89
2023-02-07T04:27:17.668Z,-3.93
2023-02-07T04:29:44.113Z,-3.94
2023-02-07T04:32:11.080Z,-3.90
2023-02-07T04:34:37.497Z,-3.94
2023-02-07T04:37:03.947Z,-3.91
2023-02-07T04:39:30.361Z,-3.97
2023-02-07T04:41:56.875Z,-3.91
2023-02-07T04:44:23.400Z,-3.88
2023-02-07T04:46:49.882Z,-3.99
2023-02-07T04:49:16.422Z,-3.87
2023-02-07T04:51:42.887Z,-3.87
2023-02-07T04:54:09.369Z,-3.81
2023-02-07T04:56:36.420Z,-3.74
2023-02-07T04:59:03.062Z,-3.83
2023-02-07T05:01:29.619Z,-3.74
2023-02-07T05:03:56.075Z,-3.65
2023-02-07T05:06:22.526Z,-3.73
2023-02-07T05:08:48.923Z,-3.68
2023-02-07T05:11:15.463Z,-3.61
2023-02-07T05:13:41.901Z,-3.73
2023-02-07T05:16:08.318Z,-3.63
2023-02-07T05:18:34.760Z,-3.62
2023-02-07T05:21:01.178Z,-3.63
2023-02-07T05:23:27.624Z,-3.54
2023-02-07T05:25:54.052Z,-3.60
2023-02-07T05:28:23.692Z,-3.62
2023-02-07T05:30:54.304Z,-3.41
2023-02-07T05:33:20.737Z,-3.31
2023-02-07T05:35:47.188Z,-3.20
2023-02-07T05:38:16.855Z,-3.32
2023-02-07T05:40:44.152Z,-3.28
2023-02-07T05:43:11.743Z,-3.31
2023-02-07T05:45:38.737Z,-3.26
2023-02-07T05:48:06.184Z,-3.28
2023-02-07T05:50:32.893Z,-3.26
2023-02-07T05:52:59.318Z,-3.29
2023-02-07T05:55:25.774Z,-3.30
2023-02-07T05:57:52.208Z,-3.34
2023-02-07T06:00:19.564Z,-3.24
2023-02-07T06:02:46.171Z,-3.22
2023-02-07T06:05:16.401Z,-3.21
2023-02-07T06:07:44.234Z,-3.22
2023-02-07T06:10:11.544Z,-3.17
2023-02-07T06:12:37.955Z,-3.23
2023-02-07T06:15:05.166Z,-3.21
2023-02-07T06:17:32.070Z,-3.26
2023-02-07T06:19:58.553Z,-3.27
2023-02-07T06:22:25.250Z,-3.31
2023-02-07T06:24:51.620Z,-3.30
2023-02-07T06:27:18.145Z,-3.36
2023-02-07T06:29:44.542Z,-3.45
2023-02-07T06:32:10.985Z,-3.34
2023-02-07T06:34:37.434Z,-3.45
2023-02-07T06:37:03.928Z,-3.51
2023-02-07T06:39:30.326Z,-3.40
2023-02-07T06:41:56.727Z,-3.32
2023-02-07T06:44:23.205Z,-3.37
2023-02-07T06:46:49.710Z,-3.25
2023-02-07T06:49:16.098Z,-3.21
2023-02-07T06:51:42.497Z,-3.12
2023-02-07T06:54:10.001Z,-3.08
2023-02-07T06:56:37.450Z,-3.04
2023-02-07T06:59:03.864Z,-3.03
2023-02-07T07:01:30.877Z,-3.06
2023-02-07T07:03:57.344Z,-3.16
2023-02-07T07:06:23.864Z,-3.18
2023-02-07T07:08:51.695Z,-3.11
2023-02-07T07:11:18.833Z,-2.99
2023-02-07T07:13:48.654Z,-2.93
2023-02-07T07:16:15.138Z,-2.97
2023-02-07T07:18:41.745Z,-3.03
2023-02-07T07:21:10.354Z,-2.92
2023-02-07T07:23:36.783Z,-3.00
2023-02-07T07:26:03.361Z,-2.96
2023-02-07T07:28:30.450Z,-2.95
2023-02-07T07:31:03.501Z,-3.04
2023-02-07T07:33:30.045Z,-3.06
2023-02-07T07:36:00.787Z,-3.12
2023-02-07T07:38:28.346Z,-3.08
2023-02-07T07:40:54.868Z,-3.13
2023-02-07T07:43:21.365Z,-3.12
2023-02-07T07:45:55.582Z,-3.13
2023-02-07T07:48:23.139Z,-3.17
2023-02-07T07:50:50.083Z,-3.17
2023-02-07T07:53:18.339Z,-3.21
2023-02-07T07:55:52.949Z,-3.15
2023-02-07T07:58:20.130Z,-3.13
2023-02-07T08:00:47.796Z,-3.12
2023-02-07T08:03:16.320Z,-2.97
2023-02-07T08:05:43.658Z,-2.93
2023-02-07T08:08:10.342Z,-2.86
2023-02-07T08:10:37.312Z,-2.82
2023-02-07T08:13:04.455Z,-2.88
2023-02-07T08:15:31.149Z,-3.01
2023-02-07T08:17:57.554Z,-2.91
2023-02-07T08:20:24.108Z,-2.85
2023-02-07T08:22:50.974Z,-3.04
2023-02-07T08:25:17.643Z,-2.98
2023-02-07T08:27:44.676Z,-3.13
2023-02-07T08:30:13.356Z,-3.12
2023-02-07T08:32:41.431Z,-3.04
2023-02-07T08:35:08.868Z,-2.82
2023-02-07T08:37:35.291Z,-2.68
2023-02-07T08:40:02.397Z,-2.70
2023-02-07T08:42:28.775Z,-2.79
2023-02-07T08:44:56.790Z,-2.86
2023-02-07T08:47:23.424Z,-2.77
2023-02-07T08:49:49.889Z,-2.84
2023-02-07T08:52:16.307Z,-2.86
2023-02-07T08:54:42.703Z,-3.02
2023-02-07T08:57:09.334Z,-2.93
2023-02-07T08:59:35.760Z,-3.12
2023-02-07T09:02:02.865Z,-3.19
2023-02-07T09:04:29.442Z,-3.40
2023-02-07T09:06:55.905Z,-3.47
2023-02-07T09:09:22.440Z,-3.44
2023-02-07T09:11:48.875Z,-3.43
2023-02-07T09:14:15.345Z,-3.44
2023-02-07T09:16:42.439Z,-3.33
2023-02-07T09:19:08.934Z,-3.11
2023-02-07T09:21:37.492Z,-3.01
2023-02-07T09:24:04.405Z,-3.14
2023-02-07T09:26:33.249Z,-2.96
2023-02-07T09:28:59.991Z,-2.73
2023-02-07T09:31:26.602Z,-2.70
2023-02-07T09:33:53.067Z,-2.65
2023-02-07T09:36:25.806Z,-2.42
2023-02-07T09:38:52.953Z,-2.41
2023-02-07T09:41:39.248Z,-2.36
2023-02-07T09:44:43.221Z,-2.40
2023-02-07T09:47:24.652Z,-2.34
2023-02-07T09:49:56.613Z,-2.23
2023-02-07T09:52:29.200Z,-2.39
2023-02-07T09:55:18.321Z,-2.45
2023-02-07T09:57:49.321Z,-2.37
2023-02-07T10:00:27.962Z,-2.15
2023-02-07T10:03:01.074Z,-2.28
2023-02-07T10:05:34.201Z,-2.23
2023-02-07T10:08:00.708Z,-2.15
2023-02-07T10:10:50.588Z,-2.12
2023-02-07T10:13:24.990Z,-2.30
2023-02-07T10:16:13.658Z,-2.34
2023-02-07T10:18:47.085Z,-2.37
2023-02-07T10:21:45.884Z,-2.26
2023-02-07T10:24:40.621Z,-2.27
2023-02-07T10:27:11.982Z,-2.38
2023-02-07T10:30:00.742Z,-2.25
2023-02-07T10:32:31.137Z,-2.17
2023-02-07T10:35:05.264Z,-2.37
2023-02-07T10:37:38.025Z,-2.69
2023-02-07T10:40:13.261Z,-2.71
2023-02-07T10:42:42.430Z,-2.52
2023-02-07T10:45:13.859Z,-2.43
2023-02-07T10:47:41.115Z,-2.32
2023-02-07T10:50:21.398Z,-2.44
2023-02-07T10:52:56.996Z,-2.47
2023-02-07T10:55:41.384Z,-2.53
2023-02-07T10:58:22.733Z,-2.31
2023-02-07T11:00:55.019Z,-2.17
2023-02-07T11:03:25.732Z,-2.03
2023-02-07T11:06:02.533Z,-1.98
2023-02-07T11:08:32.661Z,-2.01
2023-02-07T11:11:17.183Z,-1.94
2023-02-07T11:13:48.613Z,-1.95
2023-02-07T11:16:18.431Z,-1.93
2023-02-07T11:18:53.877Z,-1.80
2023-02-07T11:21:39.526Z,-1.69
2023-02-07T11:24:07.835Z,-1.70
2023-02-07T11:26:40.961Z,-1.67
2023-02-07T11:29:15.584Z,-1.61
2023-02-07T11:31:44.737Z,-1.52
2023-02-07T11:34:24.785Z,-1.46
2023-02-07T11:36:51.326Z,-1.31
2023-02-07T11:39:23.506Z,-1.40
2023-02-07T11:41:58.645Z,-1.56
2023-02-07T11:44:27.089Z,-1.60
2023-02-07T11:46:57.175Z,-1.55
2023-02-07T11:49:28.964Z,-1.84
2023-02-07T11:51:58.666Z,-1.95
2023-02-07T11:54:26.421Z,-2.20
2023-02-07T11:57:00.503Z,-1.99
2023-02-07T11:59:33.436Z,-2.05
2023-02-07T12:02:14.337Z,-2.20
2023-02-07T12:04:41.967Z,-1.84
2023-02-07T12:07:16.750Z,-1.65
2023-02-07T12:09:54.536Z,-1.42
2023-02-07T12:12:41.322Z,-1.25
2023-02-07T12:15:13.287Z,-1.19
2023-02-07T12:17:42.764Z,-1.04
2023-02-07T12:20:31.130Z,-1.12
2023-02-07T12:23:41.280Z,-1.18
2023-02-07T12:26:12.610Z,-1.08
2023-02-07T12:29:31.377Z,-0.96
2023-02-07T12:31:58.010Z,-0.86
2023-02-07T12:34:54.263Z,-0.86
2023-02-07T12:37:42.127Z,-0.85
2023-02-07T12:40:11.774Z,-0.76
2023-02-07T12:42:43.438Z,-0.70
2023-02-07T12:45:46.906Z,-0.77
2023-02-07T12:48:48.095Z,-1.03
2023-02-07T12:51:39.341Z,-0.97
2023-02-07T12:54:12.924Z,-0.90
2023-02-07T12:56:42.585Z,-1.39
2023-02-07T12:59:15.663Z,-1.35
2023-02-07T13:01:58.451Z,-1.49
2023-02-07T13:04:46.483Z,-1.71
2023-02-07T13:07:15.826Z,-1.79
2023-02-07T13:09:45.551Z,-1.87
2023-02-07T13:12:20.491Z,-2.06
2023-02-07T13:14:53.041Z,-2.00
2023-02-07T13:17:28.871Z,-1.72
2023-02-07T13:20:24.053Z,-1.90
2023-02-07T13:23:00.569Z,-1.88
2023-02-07T13:25:31.987Z,-1.59
2023-02-07T13:28:04.675Z,-1.90
2023-02-07T13:30:31.762Z,-1.88
2023-02-07T13:33:22.881Z,-2.03
2023-02-07T13:35:49.690Z,-2.09
2023-02-07T13:38:28.317Z,-2.02
2023-02-07T13:40:58.669Z,-1.82
2023-02-07T13:43:54.026Z,-1.87
2023-02-07T13:46:40.416Z,-2.09
2023-02-07T13:49:34.827Z,-2.24
2023-02-07T13:52:27.489Z,-2.30
2023-02-07T13:55:09.813Z,-2.09
2023-02-07T13:57:54.772Z,-2.31
2023-02-07T14:00:26.589Z,-2.57
2023-02-07T14:02:56.810Z,-2.71
2023-02-07T14:05:27.439Z,-2.71
2023-02-07T14:08:18.766Z,-2.59
2023-02-07T14:10:47.854Z,-2.52
2023-02-07T14:13:26.311Z,-2.41
2023-02-07T14:16:06.930Z,-2.14
2023-02-07T14:18:52.827Z,-2.04
2023-02-07T14:21:19.508Z,-1.93
2023-02-07T14:24:02.439Z,-1.70
2023-02-07T14:26:37.583Z,-1.47
2023-02-07T14:29:25.335Z,-1.45
2023-02-07T14:31:55.745Z,-1.30
2023-02-07T14:34:24.818Z,-1.67
2023-02-07T14:36:54.869Z,-1.95
2023-02-07T14:39:32.296Z,-1.98
2023-02-07T14:42:17.599Z,-1.85
2023-02-07T14:44:47.938Z,-1.62
2023-02-07T14:47:28.144Z,-1.78
2023-02-07T14:49:58.275Z,-1.86
2023-02-07T14:52:31.642Z,-1.95
2023-02-07T14:55:21.371Z,-2.01
2023-02-07T14:58:00.349Z,-1.71
2023-02-07T15:00:37.735Z,-1.63
2023-02-07T15:03:13.703Z,-1.64
2023-02-07T15:05:51.211Z,-1.52
2023-02-07T15:08:21.250Z,-1.59
2023-02-07T15:11:02.485Z,-1.40
2023-02-07T15:13:36.888Z,-1.39
2023-02-07T15:16:14.489Z,-1.49
2023-02-07T15:18:52.253Z,-1.56
2023-02-07T15:21:24.036Z,-1.68
2023-02-07T15:23:57.801Z,-1.58
2023-02-07T15:26:25.874Z,-1.79
2023-02-07T15:29:01.430Z,-1.84
2023-02-07T15:31:29.373Z,-1.96
2023-02-07T15:34:00.035Z,-2.20
2023-02-07T15:36:38.474Z,-2.31
2023-02-07T15:39:13.297Z,-2.20
2023-02-07T15:41:40.277Z,-2.48
2023-02-07T15:44:22.486Z,-2.61
2023-02-07T15:47:04.241Z,-2.63
2023-02-07T15:49:40.757Z,-2.74
2023-02-07T15:52:22.331Z,-2.73
2023-02-07T15:54:52.692Z,-2.63
2023-02-07T15:57:28.477Z,-2.55
2023-02-07T16:00:00.399Z,-2.61
2023-02-07T16:02:35.966Z,-2.56
2023-02-07T16:05:38.836Z,-2.57
2023-02-07T16:08:08.974Z,-2.44
2023-02-07T16:10:39.792Z,-2.52
2023-02-07T16:13:21.463Z,-2.40
2023-02-07T16:16:08.477Z,-2.60
2023-02-07T16:18:48.730Z,-2.69
2023-02-07T16:21:18.286Z,-2.59
2023-02-07T16:23:47.381Z,-2.61
2023-02-07T16:26:17.349Z,-2.46
2023-02-07T16:28:45.685Z,-2.50
2023-02-07T16:31:12.409Z,-2.50
2023-02-07T16:33:39.963Z,-2.53
2023-02-07T16:36:10.392Z,-2.46
2023-02-07T16:38:36.870Z,-2.54
2023-02-07T16:41:03.819Z,-2.61
2023-02-07T16:43:40.043Z,-2.60
2023-02-07T16:46:06.519Z,-2.67
2023-02-07T16:48:33.093Z,-2.66
2023-02-07T16:51:01.220Z,-2.68
2023-02-07T16:53:27.898Z,-2.74
2023-02-07T16:55:56.754Z,-2.75
2023-02-07T16:58:28.881Z,-2.64
2023-02-07T17:00:55.357Z,-2.64
2023-02-07T17:03:22.775Z,-2.76
2023-02-07T17:05:50.389Z,-2.67
2023-02-07T17:08:22.615Z,-2.64
2023-02-07T17:10:54.112Z,-2.80
2023-02-07T17:13:20.663Z,-2.84
2023-02-07T17:15:47.121Z,-3.00
2023-02-07T17:18:13.857Z,-3.07
2023-02-07T17:20:41.016Z,-2.98
2023-02-07T17:23:07.890Z,-3.16
2023-02-07T17:25:34.360Z,-3.35
2023-02-07T17:28:00.823Z,-3.34
2023-02-07T17:30:30.264Z,-3.32
2023-02-07T17:32:58.390Z,-3.34
2023-02-07T17:35:24.906Z,-3.34
2023-02-07T17:37:51.330Z,-3.52
2023-02-07T17:40:26.681Z,-3.54
2023-02-07T17:42:53.314Z,-3.46
2023-02-07T17:45:19.814Z,-3.44
2023-02-07T17:47:46.268Z,-3.32
2023-02-07T17:50:21.573Z,-3.19
2023-02-07T17:52:48.141Z,-3.13
2023-02-07T17:55:17.448Z,-3.04
2023-02-07T17:57:44.146Z,-3.31
2023-02-07T18:00:21.148Z,-3.27
2023-02-07T18:02:48.219Z,-3.36
2023-02-07T18:05:16.424Z,-3.26
2023-02-07T18:07:43.997Z,-3.13
2023-02-07T18:10:16.637Z,-3.19
2023-02-07T18:12:43.525Z,-3.09
2023-02-07T18:15:10.448Z,-3.16
2023-02-07T18:17:37.217Z,-3.14
2023-02-07T18:20:06.598Z,-3.13
2023-02-07T18:22:33.309Z,-3.38
2023-02-07T18:24:59.717Z,-3.43
2023-02-07T18:27:26.146Z,-3.45
2023-02-07T18:29:52.514Z,-3.30
2023-02-07T18:32:19.006Z,-3.43
2023-02-07T18:34:45.415Z,-3.29
2023-02-07T18:37:11.817Z,-3.18
2023-02-07T18:39:38.259Z,-3.30
2023-02-07T18:42:04.761Z,-3.47
2023-02-07T18:44:31.211Z,-3.56
2023-02-07T18:46:57.713Z,-3.69
2023-02-07T18:49:24.091Z,-3.43
2023-02-07T18:51:50.703Z,-3.29
2023-02-07T18:54:19.065Z,-3.31
2023-02-07T18:56:52.048Z,-3.52
2023-02-07T18:59:20.204Z,-3.46
2023-02-07T19:01:48.522Z,-3.29
2023-02-07T19:04:15.831Z,-3.26
2023-02-07T19:06:44.249Z,-3.14
2023-02-07T19:09:11.331Z,-3.23
2023-02-07T19:11:39.553Z,-3.36
2023-02-07T19:14:18.059Z,-3.33
2023-02-07T19:16:45.520Z,-3.28
2023-02-07T19:19:14.155Z,-3.40
2023-02-07T19:21:41.330Z,-3.45
2023-02-07T19:24:11.396Z,-3.33
2023-02-07T19:29:06.089Z,-3.49
2023-02-07T19:31:32.762Z,-3.63
2023-02-07T19:33:59.930Z,-3.55
2023-02-07T19:36:27.557Z,-3.44
2023-02-07T19:38:54.778Z,-3.50
2023-02-07T19:41:25.176Z,-3.47
2023-02-07T19:43:52.253Z,-3.63
2023-02-07T19:46:19.489Z,-3.60
2023-02-07T19:48:46.763Z,-3.76
2023-02-07T19:51:17.348Z,-3.67
2023-02-07T19:53:45.207Z,-3.65
2023-02-07T19:56:12.860Z,-3.78
2023-02-07T19:58:42.670Z,-3.94
2023-02-07T20:01:09.803Z,-3.76
2023-02-07T20:03:41.089Z,-3.85
2023-02-07T20:06:12.170Z,-3.73
2023-02-07T20:08:40.031Z,-3.52
2023-02-07T20:11:09.181Z,-3.54
2023-02-07T20:13:37.655Z,-3.55
2023-02-07T20:16:06.668Z,-3.79
2023-02-07T20:18:34.067Z,-3.86
2023-02-07T20:21:11.531Z,-3.66
2023-02-07T20:23:39.911Z,-3.63
2023-02-07T20:26:08.610Z,-3.55
2023-02-07T20:28:35.371Z,-3.63
2023-02-07T20:31:05.182Z,-3.69
2023-02-07T20:33:31.709Z,-3.52
2023-02-07T20:35:58.124Z,-3.80
2023-02-07T20:38:24.539Z,-3.62
2023-02-07T20:40:50.945Z,-3.52
2023-02-07T20:43:17.345Z,-3.50
2023-02-07T20:45:43.794Z,-3.62
2023-02-07T20:48:13.261Z,-3.64
2023-02-07T20:50:39.912Z,-3.61
2023-02-07T20:53:06.393Z,-3.60
2023-02-07T20:55:32.893Z,-3.60
2023-02-07T20:57:59.684Z,-3.59
2023-02-07T21:00:26.115Z,-3.68
2023-02-07T21:02:52.482Z,-3.79
2023-02-07T21:05:18.867Z,-4.07
2023-02-07T21:07:45.239Z,-4.01
2023-02-07T21:10:11.870Z,-3.95
2023-02-07T21:12:38.232Z,-4.11
2023-02-07T21:15:04.794Z,-4.11
2023-02-07T21:17:31.248Z,-3.95
2023-02-07T21:19:57.706Z,-3.87
2023-02-07T21:22:24.300Z,-3.96
2023-02-07T21:24:51.129Z,-3.89
2023-02-07T21:27:17.542Z,-3.86
2023-02-07T21:29:44.716Z,-3.84
2023-02-07T21:32:11.226Z,-3.83
2023-02-07T21:34:37.639Z,-3.94
2023-02-07T21:37:04.088Z,-3.97
2023-02-07T21:39:30.481Z,-4.04
2023-02-07T21:41:56.915Z,-3.92
2023-02-07T21:44:23.477Z,-4.00
2023-02-07T21:46:50.941Z,-4.04
2023-02-07T21:49:20.315Z,-4.08
2023-02-07T21:51:48.972Z,-3.89
2023-02-07T21:54:16.624Z,-3.88
2023-02-07T21:56:44.151Z,-3.89
2023-02-07T21:59:17.248Z,-3.94
2023-02-07T22:01:45.070Z,-4.06
2023-02-07T22:04:12.389Z,-4.05
2023-02-07T22:06:42.160Z,-4.10
2023-02-07T22:09:12.237Z,-4.02
2023-02-07T22:11:38.843Z,-3.97
2023-02-07T22:14:05.834Z,-3.90
2023-02-07T22:16:33.378Z,-4.22
2023-02-07T22:19:01.676Z,-4.24
2023-02-07T22:21:30.861Z,-4.06
2023-02-07T22:23:58.069Z,-3.93
2023-02-07T22:26:25.958Z,-3.89
2023-02-07T22:28:52.781Z,-3.92
2023-02-07T22:31:23.218Z,-4.05
2023-02-07T22:33:51.107Z,-4.07
2023-02-07T22:36:20.583Z,-4.24
2023-02-07T22:38:47.985Z,-4.12
2023-02-07T22:41:15.517Z,-4.26
2023-02-07T22:43:42.286Z,-4.16
2023-02-07T22:46:12.230Z,-4.17
2023-02-07T22:48:38.856Z,-4.26
2023-02-07T22:51:13.225Z,-4.31
2023-02-07T22:53:40.382Z,-4.18
2023-02-07T22:56:07.837Z,-4.14
2023-02-07T22:58:34.558Z,-4.11
2023-02-07T23:01:00.956Z,-4.38
2023-02-07T23:03:27.631Z,-4.62
2023-02-07T23:05:54.069Z,-4.64
2023-02-07T23:08:20.475Z,-4.77
2023-02-07T23:10:46.919Z,-4.91
2023-02-07T23:13:13.381Z,-5.02
2023-02-07T23:15:46.098Z,-5.04
2023-02-07T23:18:13.105Z,-5.01
2023-02-07T23:20:43.104Z,-4.86
2023-02-07T23:23:09.612Z,-4.82
2023-02-07T23:25:36.014Z,-4.71
2023-02-07T23:28:02.451Z,-4.55
2023-02-07T23:30:29.419Z,-4.63
2023-02-07T23:32:55.877Z,-4.71
2023-02-07T23:35:22.312Z,-4.79
2023-02-07T23:37:48.704Z,-4.84
2023-02-07T23:40:16.241Z,-4.85
2023-02-07T23:42:42.657Z,-4.81
2023-02-07T23:45:11.951Z,-4.81
2023-02-07T23:47:38.439Z,-4.66
2023-02-07T23:50:05.000Z,-4.61
2023-02-07T23:52:31.470Z,-4.57
2023-02-07T23:54:57.906Z,-4.73
2023-02-07T23:57:24.434Z,-4.77
2023-02-07T23:59:51.102Z,-4.84
